Time;durP1;ratioP1;P1;durP2;ratioP2;P2;SDS_P1;SDS_P2;PMS_P1;PMS_P2;Temp;Humidity;BMP_temperature;BMP_pressure;BME280_temperature;BME280_humidity;BME280_pressure;Samples;Min_cycle;Max_cycle;Signal;HPM_P1;HPM_P2
2023/01/19 00:00:19;;;;;;;6.45;1.30;;;;;;;;;;5046035;28;20098;-63
2023/01/19 00:02:46;;;;;;;7.90;1.23;;;;;;;;;;5066753;28;20036;-61
2023/01/19 00:05:13;;;;;;;7.45;1.90;;;3.30;99.90;;;;;;5070594;28;20443;-62
2023/01/19 00:07:39;;;;;;;5.10;1.70;;;;;;;;;;5065326;28;20047;-62
2023/01/19 00:10:05;;;;;;;4.55;1.30;;;3.50;99.90;;;;;;5040121;28;20451;-62
2023/01/19 00:12:31;;;;;;;5.65;1.30;;;;;;;;;;5042312;28;20072;-62
2023/01/19 00:14:57;;;;;;;10.18;2.22;;;3.30;99.90;;;;;;5070154;28;20052;-62
2023/01/19 00:17:22;;;;;;;7.55;1.20;;;3.40;99.90;;;;;;5067443;28;20052;-62
2023/01/19 00:19:49;;;;;;;8.75;1.50;;;;;;;;;;5052224;28;20036;-61
2023/01/19 00:22:15;;;;;;;7.35;1.40;;;;;;;;;;5070089;28;20091;-62
2023/01/19 00:24:41;;;;;;;4.82;1.17;;;;;;;;;;5069497;28;20040;-62
2023/01/19 00:27:07;;;;;;;6.95;1.38;;;;;;;;;;5051619;28;20082;-62
2023/01/19 00:29:33;;;;;;;7.47;1.40;;;;;;;;;;5070110;28;20119;-62
2023/01/19 00:31:59;;;;;;;4.88;1.00;;;;;;;;;;5067503;28;20041;-62
2023/01/19 00:34:26;;;;;;;5.70;1.52;;;;;;;;;;5070005;28;20050;-62
2023/01/19 00:36:52;;;;;;;4.43;1.60;;;;;;;;;;5069734;28;20068;-60
2023/01/19 00:39:18;;;;;;;10.40;1.95;;;;;;;;;;5069595;28;20043;-63
2023/01/19 00:44:28;;;;;;;8.95;1.60;;;;;;;;;;5057903;28;20036;-61
2023/01/19 00:46:54;;;;;;;12.52;1.95;;;;;;;;;;5064655;28;20041;-63
2023/01/19 00:49:20;;;;;;;6.82;1.58;;;;;;;;;;5066362;28;20045;-63
2023/01/19 00:51:46;;;;;;;9.57;1.60;;;;;;;;;;5067476;28;20044;-63
2023/01/19 00:54:12;;;;;;;7.47;1.63;;;3.70;99.90;;;;;;5064037;28;20049;-63
2023/01/19 00:56:38;;;;;;;11.65;2.63;;;;;;;;;;5069944;28;20043;-62
2023/01/19 00:59:04;;;;;;;7.40;1.38;;;3.70;99.90;;;;;;5069578;28;20105;-63
2023/01/19 01:01:30;;;;;;;11.27;1.77;;;;;;;;;;5069641;28;20028;-62
2023/01/19 01:03:56;;;;;;;7.22;1.58;;;;;;;;;;5070044;28;20032;-63
2023/01/19 01:06:22;;;;;;;7.90;1.45;;;;;;;;;;5069558;28;20139;-61
2023/01/19 01:08:48;;;;;;;4.65;1.20;;;;;;;;;;5066723;28;20488;-61
2023/01/19 01:11:14;;;;;;;5.90;1.00;;;;;;;;;;5060591;28;20777;-62
2023/01/19 01:13:41;;;;;;;6.53;1.17;;;;;;;;;;5048449;28;20044;-62
2023/01/19 01:16:08;;;;;;;5.43;1.15;;;;;;;;;;5059647;28;20048;-61
2023/01/19 01:18:34;;;;;;;7.47;1.27;;;3.70;99.90;;;;;;5063368;28;20041;-62
2023/01/19 01:21:03;;;;;;;11.52;2.22;;;;;;;;;;5056968;28;20383;-62
2023/01/19 01:23:29;;;;;;;2.42;0.85;;;;;;;;;;5069296;28;20036;-61
2023/01/19 01:25:55;;;;;;;6.25;1.20;;;;;;;;;;5060766;28;20178;-62
2023/01/19 01:28:22;;;;;;;6.45;1.20;;;;;;;;;;5065060;28;20052;-60
2023/01/19 01:30:48;;;;;;;5.93;1.20;;;;;;;;;;5070472;28;20036;-60
2023/01/19 01:33:14;;;;;;;6.72;1.30;;;;;;;;;;5071653;28;20041;-62
2023/01/19 01:35:40;;;;;;;5.95;1.50;;;;;;;;;;5072067;28;20044;-62
2023/01/19 01:38:06;;;;;;;7.82;1.15;;;;;;;;;;5064189;28;20032;-63
2023/01/19 01:40:32;;;;;;;7.28;1.20;;;;;;;;;;5064133;28;20090;-62
2023/01/19 01:42:58;;;;;;;8.20;1.52;;;;;;;;;;5055965;28;20045;-62
2023/01/19 01:45:27;;;;;;;9.98;1.42;;;;;;;;;;5063872;28;20119;-62
2023/01/19 01:47:55;;;;;;;6.40;1.40;;;;;;;;;;5060905;28;20040;-61
2023/01/19 01:50:22;;;;;;;5.20;1.10;;;;;;;;;;5065512;28;20082;-62
2023/01/19 01:53:00;;;;;;;6.10;1.20;;;3.90;99.90;;;;;;5073133;28;20071;-63
2023/01/19 01:55:28;;;;;;;10.10;1.52;;;3.60;99.90;;;;;;5072931;28;20028;-63
2023/01/19 01:57:56;;;;;;;9.40;1.23;;;;;;;;;;5046036;28;20040;-62
2023/01/19 02:00:23;;;;;;;8.23;1.60;;;;;;;;;;5068768;28;20379;-62
2023/01/19 02:02:53;;;;;;;5.80;1.27;;;;;;;;;;5042357;28;20045;-62
2023/01/19 02:05:30;;;;;;;9.80;1.70;;;;;;;;;;5064066;28;20493;-63
2023/01/19 02:13:35;;;;;;;6.88;1.85;;;;;;;;;;5069114;28;20524;-62
2023/01/19 02:16:05;;;;;;;7.97;1.70;;;;;;;;;;5058782;28;20032;-62
2023/01/19 02:18:31;;;;;;;9.70;1.60;;;;;;;;;;5054326;28;20040;-63
2023/01/19 02:20:57;;;;;;;6.95;1.40;;;;;;;;;;5070443;28;20490;-62
2023/01/19 02:23:44;;;;;;;8.43;1.30;;;3.10;99.90;;;;;;5067854;28;20036;-62
2023/01/19 02:26:12;;;;;;;5.22;1.10;;;;;;;;;;5072747;28;20059;-62
2023/01/19 02:28:39;;;;;;;6.82;1.42;;;;;;;;;;5072179;28;20044;-61
2023/01/19 02:31:06;;;;;;;5.78;1.42;;;;;;;;;;5063286;28;20032;-62
2023/01/19 02:33:32;;;;;;;6.40;1.60;;;;;;;;;;5045689;28;20056;-62
2023/01/19 02:35:59;;;;;;;7.80;1.50;;;3.50;99.90;;;;;;5056313;28;20041;-62
2023/01/19 02:38:26;;;;;;;5.50;1.00;;;;;;;;;;5050395;28;20040;-62
2023/01/19 02:40:54;;;;;;;9.40;1.50;;;;;;;;;;5071980;28;20055;-60
2023/01/19 02:43:22;;;;;;;6.85;2.10;;;4.00;99.90;;;;;;5058118;28;20046;-62
2023/01/19 02:45:48;;;;;;;8.13;1.35;;;3.90;99.90;;;;;;5072333;28;20037;-62
2023/01/19 02:48:16;;;;;;;5.25;1.20;;;;;;;;;;5071672;28;20039;-62
2023/01/19 02:50:45;;;;;;;6.57;1.90;;;;;;;;;;5062105;28;20040;-61
2023/01/19 02:53:32;;;;;;;8.93;1.40;;;4.10;99.90;;;;;;5069409;28;20047;-62
2023/01/19 02:56:07;;;;;;;7.72;2.25;;;;;;;;;;5064644;28;20040;-62
2023/01/19 02:58:39;;;;;;;7.45;1.52;;;;;;;;;;5059278;28;20086;-62
2023/01/19 03:01:14;;;;;;;9.50;1.35;;;;;;;;;;5072521;28;20068;-62
2023/01/19 03:04:01;;;;;;;5.03;1.20;;;4.10;99.90;;;;;;5054063;28;20036;-60
2023/01/19 03:06:49;;;;;;;11.70;2.05;;;;;;;;;;5063928;28;20051;-61
2023/01/19 03:09:37;;;;;;;8.60;1.58;;;;;;;;;;5059834;28;20075;-62
2023/01/19 03:12:14;;;;;;;7.93;2.58;;;;;;;;;;5069550;28;20044;-60
2023/01/19 03:14:45;;;;;;;11.05;1.38;;;4.00;72.50;;;;;;5054549;28;20154;-62
2023/01/19 03:17:13;;;;;;;9.73;1.67;;;3.60;24.80;;;;;;5044404;28;20052;-61
2023/01/19 03:19:42;;;;;;;9.00;1.40;;;4.00;19.30;;;;;;5069748;28;20039;-59
2023/01/19 03:22:13;;;;;;;13.80;2.70;;;;;;;;;;5066722;28;20068;-61
2023/01/19 03:24:42;;;;;;;7.20;1.35;;;;;;;;;;5061761;28;20112;-62
2023/01/19 03:27:39;;;;;;;8.82;1.80;;;;;;;;;;5065238;28;20661;-59
2023/01/19 03:30:09;;;;;;;6.47;1.15;;;3.30;11.30;;;;;;5063635;28;20049;-62
2023/01/19 03:32:41;;;;;;;9.23;2.03;;;4.20;17.10;;;;;;5070576;28;20083;-62
2023/01/19 03:35:11;;;;;;;12.20;1.75;;;;;;;;;;5047749;28;20048;-62
2023/01/19 03:37:40;;;;;;;10.40;2.60;;;;;;;;;;5061826;28;20068;-62
2023/01/19 03:40:07;;;;;;;11.05;1.77;;;;;;;;;;5071058;28;20044;-62
2023/01/19 03:42:33;;;;;;;10.75;2.33;;;;;;;;;;5070442;28;20055;-62
2023/01/19 03:45:00;;;;;;;11.60;1.73;;;3.90;98.20;;;;;;5070500;28;20039;-60
2023/01/19 03:47:26;;;;;;;9.60;1.80;;;;;;;;;;5066227;28;20036;-62
2023/01/19 03:49:53;;;;;;;8.98;1.90;;;;;;;;;;5050762;28;20040;-62
2023/01/19 03:52:32;;;;;;;13.07;3.13;;;4.00;99.90;;;;;;5064035;28;20033;-62
2023/01/19 03:55:00;;;;;;;12.60;1.98;;;3.50;99.90;;;;;;5068380;28;20541;-60
2023/01/19 03:57:26;;;;;;;11.25;1.70;;;;;;;;;;5070209;28;20048;-61
2023/01/19 03:59:52;;;;;;;12.48;1.90;;;;;;;;;;5066809;28;20123;-61
2023/01/19 04:02:18;;;;;;;13.68;2.08;;;;;;;;;;5063892;28;20037;-61
2023/01/19 04:04:44;;;;;;;10.43;2.10;;;;;;;;;;5070713;28;20062;-61
2023/01/19 04:07:11;;;;;;;12.07;2.10;;;;;;;;;;5050258;28;20200;-62
2023/01/19 04:09:37;;;;;;;9.60;1.48;;;;;;;;;;5069414;28;20048;-61
2023/01/19 04:12:03;;;;;;;12.25;2.10;;;;;;;;;;5068874;28;20036;-62
2023/01/19 04:14:29;;;;;;;10.07;1.90;;;;;;;;;;5056289;28;20041;-62
2023/01/19 04:16:55;;;;;;;8.77;1.42;;;4.00;99.90;;;;;;5057654;28;20045;-61
2023/01/19 04:19:20;;;;;;;7.20;1.50;;;3.90;99.90;;;;;;5070573;28;20036;-61
2023/01/19 04:21:50;;;;;;;4.63;1.20;;;;;;;;;;5070301;28;20405;-61
2023/01/19 04:24:16;;;;;;;6.30;1.38;;;;;;;;;;5070626;28;20040;-62
2023/01/19 04:26:42;;;;;;;5.78;1.42;;;;;;;;;;5052320;28;20045;-62
2023/01/19 04:29:08;;;;;;;7.13;1.30;;;;;;;;;;5052062;28;20048;-62
2023/01/19 04:31:35;;;;;;;8.35;1.40;;;;;;;;;;5070413;28;20069;-62
2023/01/19 04:34:02;;;;;;;5.15;1.10;;;3.90;99.90;;;;;;5039785;28;20053;-61
2023/01/19 04:36:28;;;;;;;9.27;1.48;;;;;;;;;;5054526;28;20041;-62
2023/01/19 04:38:54;;;;;;;5.13;1.10;;;3.80;99.90;;;;;;5066938;28;20506;-61
2023/01/19 04:41:19;;;;;;;8.32;1.60;;;3.80;99.90;;;;;;5069998;28;20039;-61
2023/01/19 04:43:46;;;;;;;9.10;1.73;;;;;;;;;;5070076;28;20456;-59
2023/01/19 04:46:13;;;;;;;10.55;1.67;;;3.90;99.90;;;;;;5065706;28;20087;-62
2023/01/19 04:48:38;;;;;;;8.73;1.83;;;3.60;99.90;;;;;;5067518;28;20036;-62
2023/01/19 04:51:04;;;;;;;9.82;1.70;;;;;;;;;;5065208;28;20103;-61
2023/01/19 04:53:30;;;;;;;6.40;1.48;;;3.60;99.90;;;;;;5069756;28;20115;-62
2023/01/19 04:55:58;;;;;;;7.03;1.77;;;;;;;;;;5070032;28;20487;-60
2023/01/19 04:58:24;;;;;;;10.02;2.17;;;;;;;;;;5069391;28;20498;-62
2023/01/19 05:00:51;;;;;;;8.73;1.48;;;;;;;;;;5060314;28;20059;-61
2023/01/19 05:03:18;;;;;;;10.73;2.20;;;;;;;;;;5060303;28;20040;-59
2023/01/19 05:05:44;;;;;;;11.23;2.17;;;;;;;;;;5070238;28;20048;-61
2023/01/19 05:08:09;;;;;;;7.88;2.08;;;3.50;99.90;;;;;;5062225;28;20086;-61
2023/01/19 05:10:36;;;;;;;5.43;1.67;;;;;;;;;;5065709;28;20032;-61
2023/01/19 05:13:03;;;;;;;7.93;1.67;;;;;;;;;;5073493;28;20036;-62
2023/01/19 05:15:28;;;;;;;9.10;1.50;;;3.40;93.30;;;;;;5067992;28;20097;-63
2023/01/19 05:17:56;;;;;;;8.27;1.70;;;3.50;99.90;;;;;;5066790;28;20036;-63
2023/01/19 05:20:22;;;;;;;12.55;2.58;;;;;;;;;;5051367;28;20068;-62
2023/01/19 05:22:52;;;;;;;9.38;2.03;;;4.00;82.90;;;;;;5073520;28;20154;-62
2023/01/19 05:25:18;;;;;;;23.13;2.67;;;;;;;;;;5055090;28;20051;-62
2023/01/19 05:27:45;;;;;;;7.97;2.00;;;;;;;;;;5070065;28;20036;-62
2023/01/19 05:30:12;;;;;;;8.45;1.58;;;;;;;;;;5065032;28;20113;-61
2023/01/19 05:32:38;;;;;;;8.60;2.30;;;;;;;;;;5037565;28;20044;-62
2023/01/19 05:35:04;;;;;;;11.32;2.47;;;;;;;;;;5064319;28;20047;-61
2023/01/19 05:37:31;;;;;;;7.03;1.77;;;3.60;1.00;;;;;;5061859;28;20053;-62
2023/01/19 05:39:57;;;;;;;11.07;2.40;;;;;;;;;;5058514;28;20041;-62
2023/01/19 05:42:24;;;;;;;10.45;2.05;;;;;;;;;;5061973;28;20041;-62
2023/01/19 05:44:50;;;;;;;8.30;2.03;;;;;;;;;;5064753;28;20041;-62
2023/01/19 05:47:16;;;;;;;10.93;2.35;;;;;;;;;;5060406;28;20032;-61
2023/01/19 05:49:42;;;;;;;11.55;2.33;;;;;;;;;;5070335;28;20048;-62
2023/01/19 05:52:08;;;;;;;11.95;2.70;;;;;;;;;;5060720;28;20037;-61
2023/01/19 05:54:34;;;;;;;13.52;2.65;;;;;;;;;;5069951;28;20040;-62
2023/01/19 05:57:01;;;;;;;11.68;2.75;;;;;;;;;;5045286;28;20056;-62
2023/01/19 05:59:27;;;;;;;13.32;2.78;;;;;;;;;;5046319;28;20048;-63
2023/01/19 06:01:53;;;;;;;10.25;1.98;;;3.80;1.00;;;;;;5070864;28;20045;-61
2023/01/19 06:04:20;;;;;;;9.77;2.08;;;3.90;99.90;;;;;;5072795;28;20119;-60
2023/01/19 06:06:49;;;;;;;11.90;2.70;;;;;;;;;;5063862;28;20043;-60
2023/01/19 06:09:16;;;;;;;13.25;2.47;;;;;;;;;;5059090;28;20047;-59
2023/01/19 06:11:45;;;;;;;9.38;1.80;;;4.00;99.90;;;;;;5064851;28;20053;-60
2023/01/19 06:14:11;;;;;;;7.20;1.42;;;4.00;99.90;;;;;;5065495;28;20111;-59
2023/01/19 06:16:37;;;;;;;7.07;1.42;;;4.00;99.90;;;;;;5061122;28;20032;-60
2023/01/19 06:19:03;;;;;;;8.65;1.80;;;;;;;;;;5042791;28;20128;-59
2023/01/19 06:21:29;;;;;;;6.85;1.42;;;;;;;;;;5066444;28;20029;-60
2023/01/19 06:23:55;;;;;;;10.15;2.00;;;;;;;;;;5057882;28;20037;-60
2023/01/19 06:26:21;;;;;;;5.88;1.42;;;;;;;;;;5065830;28;20059;-60
2023/01/19 06:28:47;;;;;;;8.90;1.95;;;;;;;;;;5061791;28;20040;-59
2023/01/19 06:31:13;;;;;;;9.65;2.45;;;;;;;;;;5047468;28;20058;-59
2023/01/19 06:33:39;;;;;;;8.57;2.15;;;;;;;;;;5061066;28;20072;-60
2023/01/19 06:36:05;;;;;;;8.48;1.80;;;;;;;;;;5065516;28;20037;-59
2023/01/19 06:38:31;;;;;;;11.55;2.00;;;;;;;;;;5068481;28;20032;-59
2023/01/19 06:40:58;;;;;;;9.48;1.45;;;;;;;;;;5062392;28;20231;-59
2023/01/19 06:43:24;;;;;;;8.95;2.47;;;4.30;73.20;;;;;;5049029;28;20094;-59
2023/01/19 06:45:50;;;;;;;11.02;2.05;;;;;;;;;;5061589;28;20121;-60
2023/01/19 06:48:17;;;;;;;7.78;2.25;;;;;;;;;;5061343;28;20040;-59
2023/01/19 06:50:46;;;;;;;14.27;2.65;;;;;;;;;;5066992;28;20036;-60
2023/01/19 06:53:15;;;;;;;19.45;2.40;;;4.40;99.90;;;;;;5069476;28;20040;-58
2023/01/19 06:55:41;;;;;;;17.58;3.83;;;;;;;;;;5061773;28;20097;-60
2023/01/19 06:58:07;;;;;;;9.45;1.90;;;;;;;;;;5056913;28;20037;-60
2023/01/19 07:00:33;;;;;;;11.85;3.00;;;4.00;99.90;;;;;;5065295;28;20040;-59
2023/01/19 07:02:59;;;;;;;10.10;2.60;;;;;;;;;;5051094;28;20523;-60
2023/01/19 07:05:25;;;;;;;9.95;2.50;;;4.10;99.90;;;;;;5059079;28;20025;-60
2023/01/19 07:07:52;;;;;;;3.72;1.38;;;;;;;;;;5057026;28;20120;-60
2023/01/19 07:10:18;;;;;;;12.32;3.03;;;;;;;;;;5061673;28;20040;-59
2023/01/19 07:12:46;;;;;;;13.38;3.08;;;4.10;1.00;;;;;;5067768;28;20101;-59
2023/01/19 07:15:12;;;;;;;10.55;3.28;;;;;;;;;;5062382;28;20502;-59
2023/01/19 07:17:38;;;;;;;7.47;2.00;;;;;;;;;;5044316;28;20044;-59
2023/01/19 07:20:04;;;;;;;8.32;2.15;;;;;;;;;;5065474;28;20083;-59
2023/01/19 07:22:30;;;;;;;12.52;2.25;;;;;;;;;;5066879;28;20120;-58
2023/01/19 07:24:57;;;;;;;7.13;1.70;;;;;;;;;;5062795;28;20035;-58
2023/01/19 07:27:26;;;;;;;8.15;1.77;;;;;;;;;;5040930;28;20063;-60
2023/01/19 07:29:51;;;;;;;8.50;1.75;;;3.60;99.90;;;;;;5062422;28;20044;-59
2023/01/19 07:32:17;;;;;;;5.05;1.15;;;3.60;1.00;;;;;;5057965;28;20094;-60
2023/01/19 07:34:44;;;;;;;11.10;2.55;;;;;;;;;;5054950;28;20079;-58
2023/01/19 07:37:09;;;;;;;10.45;2.20;;;3.80;1.00;;;;;;5062390;28;20037;-59
2023/01/19 07:39:35;;;;;;;18.98;3.10;;;;;;;;;;5065772;28;20033;-60
2023/01/19 07:42:02;;;;;;;15.48;2.63;;;;;;;;;;5069306;28;20632;-59
2023/01/19 07:44:28;;;;;;;17.38;3.08;;;;;;;;;;5063212;28;20301;-60
2023/01/19 07:46:54;;;;;;;10.98;3.45;;;;;;;;;;5039537;28;20040;-60
2023/01/19 07:49:20;;;;;;;9.77;2.63;;;;;;;;;;5070555;28;20088;-59
2023/01/19 07:51:46;;;;;;;13.80;3.35;;;;;;;;;;5068112;28;20093;-59
2023/01/19 07:54:12;;;;;;;14.77;3.28;;;;;;;;;;5062121;28;20095;-59
2023/01/19 07:56:38;;;;;;;13.23;2.92;;;;;;;;;;5070015;28;20036;-59
2023/01/19 07:59:06;;;;;;;13.77;2.75;;;;;;;;;;5047349;28;20091;-59
2023/01/19 08:01:32;;;;;;;13.55;3.10;;;;;;;;;;5066319;28;20051;-60
2023/01/19 08:03:57;;;;;;;18.10;4.32;;;3.60;99.90;;;;;;5070486;28;20098;-59
2023/01/19 08:06:32;;;;;;;17.90;3.38;;;3.70;99.90;;;;;;5052540;28;20052;-60
2023/01/19 08:08:58;;;;;;;6.90;1.58;;;;;;;;;;5057121;28;20281;-59
2023/01/19 08:11:24;;;;;;;11.23;2.38;;;;;;;;;;5067755;28;20041;-65
2023/01/19 08:13:50;;;;;;;11.60;2.67;;;;;;;;;;5052432;28;20059;-66
2023/01/19 08:16:16;;;;;;;12.65;2.53;;;;;;;;;;5031960;28;20049;-66
2023/01/19 08:18:42;;;;;;;15.35;3.25;;;3.90;99.90;;;;;;5069168;28;20036;-66
2023/01/19 08:21:08;;;;;;;24.38;4.32;;;3.80;99.90;;;;;;5065863;28;20031;-67
2023/01/19 08:23:33;;;;;;;18.48;4.05;;;3.70;99.90;;;;;;5051952;28;20509;-67
2023/01/19 08:26:00;;;;;;;13.82;3.40;;;;;;;;;;5069843;28;20033;-67
2023/01/19 08:28:26;;;;;;;11.20;2.60;;;3.70;99.90;;;;;;5069791;28;20044;-67
2023/01/19 08:30:55;;;;;;;24.65;2.95;;;;;;;;;;5069410;28;20569;-70
2023/01/19 08:33:21;;;;;;;10.38;2.50;;;3.70;99.90;;;;;;5069743;28;20044;-66
2023/01/19 08:35:50;;;;;;;14.93;2.67;;;4.10;99.90;;;;;;5069970;28;20135;-66
2023/01/19 08:38:16;;;;;;;11.05;3.33;;;;;;;;;;5055866;28;20040;-68
2023/01/19 08:40:43;;;;;;;11.73;2.45;;;;;;;;;;5051463;28;20093;-66
2023/01/19 08:43:10;;;;;;;10.13;2.55;;;;;;;;;;5050448;28;20052;-67
2023/01/19 08:45:40;;;;;;;14.43;2.78;;;;;;;;;;5061757;28;20159;-66
2023/01/19 08:48:06;;;;;;;11.82;2.55;;;;;;;;;;5067096;28;20040;-66
2023/01/19 08:50:33;;;;;;;9.05;2.15;;;3.50;99.90;;;;;;5069620;28;20044;-66
2023/01/19 08:53:00;;;;;;;8.10;2.17;;;;;;;;;;5051611;28;20048;-66
2023/01/19 08:55:26;;;;;;;10.25;2.22;;;3.80;99.90;;;;;;5051800;28;20101;-69
2023/01/19 08:57:53;;;;;;;7.13;1.48;;;;;;;;;;5057468;28;20474;-66
2023/01/19 09:00:21;;;;;;;10.48;1.58;;;;;;;;;;5059885;28;20036;-66
2023/01/19 09:02:47;;;;;;;13.60;2.65;;;3.60;97.50;;;;;;5062475;28;20045;-66
2023/01/19 09:05:12;;;;;;;12.45;2.50;;;3.60;99.90;;;;;;5051886;28;20040;-67
2023/01/19 09:07:38;;;;;;;7.90;2.40;;;;;;;;;;5068807;28;20043;-68
2023/01/19 09:10:05;;;;;;;12.13;2.50;;;4.00;99.90;;;;;;5051685;28;20037;-66
2023/01/19 09:12:31;;;;;;;8.90;2.33;;;;;;;;;;5069091;28;20075;-69
2023/01/19 09:14:57;;;;;;;7.10;2.88;;;;;;;;;;5063779;28;20082;-68
2023/01/19 09:17:23;;;;;;;12.38;2.78;;;;;;;;;;5067909;28;20045;-69
2023/01/19 09:19:49;;;;;;;8.77;2.83;;;;;;;;;;5062553;28;20032;-67
2023/01/19 09:22:15;;;;;;;8.07;1.80;;;;;;;;;;5032956;28;20115;-69
2023/01/19 09:24:41;;;;;;;9.50;1.95;;;3.90;99.90;;;;;;5059862;28;20090;-66
2023/01/19 09:27:07;;;;;;;13.98;2.40;;;3.80;99.90;;;;;;5065398;28;20527;-67
2023/01/19 09:29:32;;;;;;;12.52;2.40;;;3.70;99.90;;;;;;5051509;28;20054;-69
2023/01/19 09:31:58;;;;;;;10.27;2.83;;;;;;;;;;5069327;28;20036;-67
2023/01/19 09:34:24;;;;;;;8.52;1.85;;;;;;;;;;5051345;28;20044;-67
2023/01/19 09:36:51;;;;;;;10.75;2.22;;;;;;;;;;5065727;28;20037;-68
2023/01/19 09:39:17;;;;;;;13.52;2.47;;;;;;;;;;5045506;28;20036;-66
2023/01/19 09:41:48;;;;;;;8.45;2.10;;;3.20;99.90;;;;;;5049354;28;20067;-67
2023/01/19 09:44:45;;;;;;;10.90;2.65;;;4.10;99.90;;;;;;5062782;28;20028;-68
2023/01/19 09:47:18;;;;;;;10.60;2.20;;;4.20;69.60;;;;;;5045686;28;20119;-66
2023/01/19 09:49:49;;;;;;;7.85;1.95;;;4.10;58.40;;;;;;5059190;28;20420;-67
2023/01/19 09:52:16;;;;;;;8.38;2.45;;;4.00;24.50;;;;;;5053621;28;20098;-67
2023/01/19 09:54:55;;;;;;;9.05;2.60;;;4.10;1.00;;;;;;5051612;28;20048;-67
2023/01/19 09:57:22;;;;;;;12.45;2.47;;;;;;;;;;5040918;28;20406;-67
2023/01/19 09:59:50;;;;;;;8.25;1.90;;;4.10;1.00;;;;;;5067725;28;20083;-67
2023/01/19 10:02:53;;;;;;;10.63;2.33;;;3.80;1.00;;;;;;5072615;28;20106;-67
2023/01/19 10:05:25;;;;;;;8.52;2.38;;;;;;;;;;5072532;28;20064;-66
2023/01/19 10:08:10;;;;;;;9.23;1.88;;;;;;;;;;5060578;28;20033;-67
2023/01/19 10:10:36;;;;;;;16.42;2.00;;;;;;;;;;5059020;28;20052;-67
2023/01/19 10:13:08;;;;;;;13.93;2.63;;;4.40;99.90;;;;;;5051285;28;20128;-67
2023/01/19 10:15:45;;;;;;;8.10;1.67;;;;;;;;;;5055824;28;20384;-67
2023/01/19 10:18:19;;;;;;;16.98;3.65;;;4.30;99.90;;;;;;5064892;28;20047;-68
2023/01/19 10:20:49;;;;;;;8.57;2.20;;;;;;;;;;5024716;28;20094;-69
2023/01/19 10:23:37;;;;;;;10.20;2.53;;;;;;;;;;5070369;28;20704;-67
2023/01/19 10:26:07;;;;;;;12.10;2.15;;;;;;;;;;5060199;28;20040;-67
2023/01/19 10:28:35;;;;;;;6.65;1.48;;;4.50;99.90;;;;;;5053815;28;20141;-69
2023/01/19 10:31:03;;;;;;;9.05;2.10;;;;;;;;;;5072051;28;20037;-67
2023/01/19 10:33:29;;;;;;;10.38;1.90;;;;;;;;;;5072000;28;20100;-67
2023/01/19 10:35:55;;;;;;;11.02;1.70;;;;;;;;;;5060778;28;20572;-67
2023/01/19 10:38:22;;;;;;;8.70;1.73;;;;;;;;;;5053588;28;20433;-67
2023/01/19 10:41:03;;;;;;;7.22;1.70;;;;;;;;;;5071967;28;20040;-67
2023/01/19 10:43:43;;;;;;;6.65;1.65;;;4.80;99.90;;;;;;5058775;28;20051;-67
2023/01/19 10:46:16;;;;;;;8.90;1.48;;;;;;;;;;5054000;28;20048;-67
2023/01/19 10:48:42;;;;;;;4.22;1.00;;;;;;;;;;5071239;28;20036;-67
2023/01/19 10:51:09;;;;;;;10.10;1.58;;;;;;;;;;5071603;28;20032;-67
2023/01/19 10:53:35;;;;;;;6.20;1.50;;;;;;;;;;5042537;28;20047;-67
2023/01/19 10:56:16;;;;;;;5.03;1.05;;;4.30;99.90;;;;;;5071957;28;20040;-67
2023/01/19 10:58:42;;;;;;;5.72;1.25;;;;;;;;;;5051813;28;20049;-67
2023/01/19 11:01:14;;;;;;;6.47;1.35;;;5.00;88.90;;;;;;5071309;28;20529;-68
2023/01/19 11:03:40;;;;;;;8.98;2.20;;;;;;;;;;5052226;28;20086;-66
2023/01/19 11:06:14;;;;;;;7.72;1.30;;;4.60;99.20;;;;;;5071410;28;20029;-67
2023/01/19 11:08:40;;;;;;;;;;;;;;;;;;5071057;28;20032;-67
2023/01/19 11:11:07;;;;;;;7.32;1.40;;;;;;;;;;5071631;28;19916;-67
2023/01/19 11:13:34;;;;;;;5.00;1.13;;;5.40;99.90;;;;;;5071444;28;20051;-67
2023/01/19 11:16:19;;;;;;;8.20;1.25;;;;;;;;;;5071586;28;20041;-67
2023/01/19 11:18:46;;;;;;;;;;;;;;;;;;5051117;28;20044;-67
2023/01/19 11:21:13;;;;;;;27.80;10.07;;;;;;;;;;5041942;28;19968;-67
2023/01/19 11:23:44;;;;;;;7.05;1.42;;;5.90;99.90;;;;;;5067705;28;20047;-66
2023/01/19 11:26:24;;;;;;;6.30;1.60;;;6.10;99.90;;;;;;5059933;28;20078;-68
2023/01/19 11:28:53;;;;;;;6.82;1.20;;;;;;;;;;5069777;28;20083;-67
2023/01/19 11:31:39;;;;;;;11.48;1.40;;;5.60;93.50;;;;;;5070807;28;20047;-67
2023/01/19 11:34:30;;;;;;;4.60;1.15;;;5.80;55.40;;;;;;5070641;28;20078;-68
2023/01/19 11:36:57;;;;;;;7.07;1.30;;;;;;;;;;5041715;28;20040;-68
2023/01/19 11:39:26;;;;;;;5.63;1.77;;;;;;;;;;5070673;28;20032;-68
2023/01/19 11:41:57;;;;;;;6.07;1.38;;;;;;;;;;5070480;28;20028;-68
2023/01/19 11:44:25;;;;;;;6.32;2.45;;;;;;;;;;5070861;28;20044;-68
2023/01/19 11:46:55;;;;;;;3.55;0.90;;;;;;;;;;5052540;28;20069;-68
2023/01/19 11:49:41;;;;;;;6.60;1.30;;;5.70;49.70;;;;;;5070672;28;20032;-67
2023/01/19 11:52:30;;;;;;;7.35;1.17;;;5.80;10.60;;;;;;5059058;28;20036;-67
2023/01/19 11:55:10;;;;;;;5.35;1.20;;;;;;;;;;5068013;28;20040;-68
2023/01/19 11:57:36;;;;;;;8.38;1.67;;;;;;;;;;5069911;28;20474;-67
2023/01/19 12:00:22;;;;;;;4.35;1.40;;;;;;;;;;5069185;28;20288;-67
2023/01/19 12:02:50;;;;;;;6.50;1.45;;;;;;;;;;5070476;28;20036;-68
2023/01/19 12:05:18;;;;;;;5.03;1.13;;;5.50;33.40;;;;;;5070138;28;20551;-68
2023/01/19 12:07:45;;;;;;;14.32;3.70;;;;;;;;;;5069780;28;20049;-68
2023/01/19 12:10:20;;;;;;;7.28;1.55;;;5.00;50.10;;;;;;5070173;28;20040;-68
2023/01/19 12:12:46;;;;;;;4.70;1.13;;;;;;;;;;5070095;28;20044;-71
2023/01/19 12:15:24;;;;;;;7.28;1.38;;;;;;;;;;5069629;28;20048;-68
2023/01/19 12:17:54;;;;;;;5.63;1.50;;;5.50;40.70;;;;;;5066507;28;20040;-69
2023/01/19 12:20:30;;;;;;;7.20;1.20;;;;;;;;;;5067054;28;20028;-69
2023/01/19 12:23:18;;;;;;;9.23;1.73;;;5.80;40.30;;;;;;5052747;28;20043;-68
2023/01/19 12:25:44;;;;;;;9.35;1.88;;;;;;;;;;5051839;28;20047;-68
2023/01/19 12:28:14;;;;;;;8.93;1.92;;;5.60;47.80;;;;;;5069661;28;20032;-69
2023/01/19 12:30:40;;;;;;;7.43;2.42;;;5.30;77.30;;;;;;5069900;28;20112;-69
2023/01/19 12:33:41;;;;;;;7.05;1.80;;;;;;;;;;5051822;28;20094;-68
2023/01/19 12:36:10;;;;;;;10.98;2.13;;;;;;;;;;4971869;28;20124;-71
2023/01/19 12:38:51;;;;;;;9.57;2.88;;;;;;;;;;5047365;28;20513;-69
2023/01/19 12:41:20;;;;;;;11.07;1.98;;;;;;;;;;5051998;28;20094;-69
2023/01/19 12:43:48;;;;;;;8.63;1.50;;;5.60;90.80;;;;;;5042259;28;20040;-71
2023/01/19 12:46:30;;;;;;;5.60;1.23;;;6.10;37.20;;;;;;5043853;28;20087;-69
2023/01/19 12:49:03;;;;;;;8.63;2.17;;;;;;;;;;5058306;28;20437;-68
2023/01/19 12:51:29;;;;;;;5.68;1.58;;;;;;;;;;5061399;28;20044;-70
2023/01/19 12:53:58;;;;;;;4.88;1.52;;;;;;;;;;5048627;28;20037;-69
2023/01/19 12:56:33;;;;;;;3.25;0.95;;;5.90;37.30;;;;;;5064918;28;20452;-69
2023/01/19 12:59:00;;;;;;;5.32;1.52;;;5.70;30.40;;;;;;5064856;28;20495;-71
2023/01/19 13:01:25;;;;;;;8.10;1.33;;;5.90;16.40;;;;;;5065973;28;20093;-70
2023/01/19 13:03:58;;;;;;;8.45;1.80;;;;;;;;;;5069900;28;20107;-71
2023/01/19 13:06:45;;;;;;;4.85;1.25;;;5.80;59.10;;;;;;5069717;28;20045;-69
2023/01/19 13:09:43;;;;;;;7.03;2.13;;;7.20;38.50;;;;;;5059405;28;20523;-69
2023/01/19 13:12:19;;;;;;;7.05;1.33;;;;;;;;;;5002383;28;20181;-69
2023/01/19 13:14:45;;;;;;;5.50;1.60;;;;;;;;;;5045404;28;20498;-71
2023/01/19 13:17:21;;;;;;;4.80;1.30;;;9.80;1.00;;;;;;5069091;28;20059;-72
2023/01/19 13:19:49;;;;;;;6.65;1.60;;;;;;;;;;5048981;28;20044;-69
2023/01/19 13:22:49;;;;;;;6.10;1.52;;;9.60;1.00;;;;;;5050248;28;20052;-71
2023/01/19 13:25:29;;;;;;;4.63;1.40;;;;;;;;;;5064657;28;20448;-69
2023/01/19 13:27:55;;;;;;;5.03;1.75;;;;;;;;;;5061614;28;20037;-71
2023/01/19 13:30:25;;;;;;;7.22;1.40;;;;;;;;;;5073487;28;20037;-69
2023/01/19 13:32:52;;;;;;;5.43;1.80;;;;;;;;;;5070132;28;20116;-69
2023/01/19 13:35:18;;;;;;;6.18;1.70;;;;;;;;;;5073668;28;20036;-69
2023/01/19 13:37:45;;;;;;;5.28;1.65;;;;;;;;;;5064065;28;20048;-74
2023/01/19 13:40:30;;;;;;;5.90;1.40;;;13.70;1.00;;;;;;5073270;28;20037;-72
2023/01/19 13:42:56;;;;;;;8.15;2.65;;;;;;;;;;5073284;28;20036;-69
2023/01/19 13:45:33;;;;;;;7.07;2.08;;;;;;;;;;5041217;28;20045;-70
2023/01/19 13:48:03;;;;;;;5.13;1.20;;;14.80;1.00;;;;;;5066824;28;20406;-71
2023/01/19 13:50:32;;;;;;;6.35;2.05;;;15.00;1.00;;;;;;5047242;28;20044;-69
2023/01/19 13:52:58;;;;;;;6.15;1.60;;;;;;;;;;5038966;28;20036;-71
2023/01/19 13:55:26;;;;;;;7.53;1.60;;;12.90;1.00;;;;;;5055099;28;20412;-72
2023/01/19 13:57:52;;;;;;;6.47;1.38;;;;;;;;;;5069218;28;20032;-74
2023/01/19 14:00:24;;;;;;;7.70;1.63;;;12.90;1.00;;;;;;5072497;28;20048;-73
2023/01/19 14:02:50;;;;;;;6.53;1.60;;;;;;;;;;5054830;28;20493;-69
2023/01/19 14:05:32;;;;;;;7.55;2.45;;;;;;;;;;5046698;28;20043;-69
2023/01/19 14:08:03;;;;;;;5.15;1.67;;;;;;;;;;5057164;28;20047;-69
2023/01/19 14:10:30;;;;;;;7.15;1.98;;;;;;;;;;5072320;28;20517;-76
2023/01/19 14:13:03;;;;;;;9.60;2.35;;;;;;;;;;5065080;28;20432;-69
2023/01/19 14:15:31;;;;;;;8.75;2.03;;;10.60;1.00;;;;;;5072487;28;20043;-70
2023/01/19 14:18:07;;;;;;;7.05;1.92;;;;;;;;;;5071867;28;20067;-69
2023/01/19 14:20:35;;;;;;;8.32;1.70;;;;;;;;;;5071633;28;20502;-69
2023/01/19 14:23:02;;;;;;;8.95;1.50;;;;;;;;;;5058740;28;20037;-74